Latest Weather Observations for Moorabbin Airport

IDV60901

Issued at 2:11 pm EST Sunday 5 April 2020 (issued every 10 minutes, with the page automatically refreshed every 10 minutes)

About weather observations | Map of Melbourne area stations | Latest observations for Melbourne area | Other Formats
Station Details ID: 086077 Name: MOORABBIN AIRPORT Lat: -37.98 Lon: 145.10 Height: 12.1 m
Data from the previous 72 hours. | See also: Recent months at Moorabbin Airport
Date/Time
EST
Temp
°C
App
Temp
°C
Dew
Point
°C
Rel
Hum
%
Delta-T
°C
Wind Press
QNH
hPa
Press
MSL
hPa
Rain since
9am
mm
Dir  Spd
km/h
Gust
km/h
Spd
kts
Gust
kts
05/02:00pm 14.1 11.3 13.3 95 0.4 WNW 20 28 11 15 1007.1 1007.1 11.6
05/01:59pm 14.1 11.3 13.3 95 0.4 WNW 20 33 11 18 1007.0 1007.0 11.6
05/01:30pm 14.0 10.9 13.4 96 0.3 W 22 35 12 19 1007.0 1007.0 10.8
05/01:10pm 14.2 11.1 13.4 95 0.4 W 22 33 12 18 1006.8 1006.8 7.4
05/01:00pm 13.9 11.0 12.8 93 0.6 W 20 35 11 19 1006.8 1006.8 6.8
05/12:51pm 14.0 12.7 12.6 91 0.8 WNW 11 20 6 11 1006.7 1006.7 4.8
05/12:30pm 14.5 11.0 12.2 86 1.2 NW 22 35 12 19 1006.8 1006.8 0.8
05/12:28pm 14.5 10.9 12.0 85 1.4 NW 22 35 12 19 1006.7 1006.7 0.8
05/12:00pm 14.1 10.0 11.3 83 1.5 NNW 24 33 13 18 1006.3 1006.3 0.8
05/11:30am 14.2 8.1 10.4 78 2.0 NNW 33 46 18 25 1006.0 1006.0 0.4
05/11:10am 13.3 7.5 10.7 84 1.4 NNW 32 44 17 24 1005.9 1005.9 0.4
05/11:00am 13.1 7.1 10.8 86 1.2 NNW 33 50 18 27 1005.7 1005.7 0.4
05/10:45am 13.5 6.2 10.1 80 1.8 NNW 39 59 21 32 1005.8 1005.8 0.2
05/10:30am 14.5 8.0 9.1 70 2.8 NNW 33 52 18 28 1005.6 1005.6 0.2
05/10:00am 14.3 7.4 8.9 70 2.7 NNW 35 56 19 30 1005.3 1005.3 0.0
05/09:30am 14.2 6.8 8.2 67 3.0 NNW 37 59 20 32 1005.1 1005.1 0.0
05/09:04am 13.6 6.0 7.6 67 2.9 NNW 37 56 20 30 1005.2 1005.2 0.0
05/09:00am 13.5 5.5 7.5 67 3.0 NNW 39 56 21 30 1005.1 1005.1 -
05/08:43am 13.1 5.4 7.3 68 2.8 NNW 37 56 20 30 1005.1 1005.1 -
05/08:30am 12.6 5.3 7.1 69 2.7 NNW 35 50 19 27 1005.0 1005.0 -
05/08:00am 11.9 4.8 6.6 70 2.5 N 33 48 18 26 1005.1 1005.1 -
05/07:30am 11.6 4.5 6.3 70 2.5 N 33 46 18 25 1004.8 1004.8 -
05/07:00am 11.3 3.7 5.8 69 2.6 N 35 52 19 28 1004.6 1004.6 -
05/06:30am 10.8 3.7 5.6 70 2.4 NNW 32 43 17 23 1004.8 1004.8 -
05/06:16am 10.6 3.3 5.4 70 2.4 N 33 54 18 29 1004.8 1004.8 -
05/06:00am 10.6 2.9 5.2 69 2.5 N 35 50 19 27 1004.9 1004.9 -
05/05:50am 10.6 3.2 5.2 69 2.5 N 33 52 18 28 1004.9 1004.9 -
05/05:30am 10.3 3.2 5.3 71 2.3 N 32 43 17 23 1005.1 1005.1 -
05/05:00am 10.2 2.1 5.2 71 2.3 N 37 52 20 28 1005.1 1005.1 -
05/04:30am 10.0 3.6 5.4 73 2.1 N 28 41 15 22 1005.4 1005.4 -
05/04:00am 9.7 4.8 4.3 69 2.4 N 19 30 10 16 1006.3 1006.3 -
05/03:30am 9.6 4.5 4.2 69 2.4 N 20 28 11 15 1006.5 1006.5 -
05/03:00am 9.7 - 4.3 69 2.4 - - - - - 1006.2 1006.2 -
05/03:30am 9.8 4.0 4.6 70 2.3 NNW 24 37 13 20 1005.8 1005.8 2.6
05/03:00am 9.6 4.6 4.4 70 2.3 N 20 28 11 15 1006.8 1006.8 2.6
05/02:30am 9.7 4.6 4.3 69 2.4 NNW 20 28 11 15 1007.1 1007.1 2.6
05/02:00am 9.6 4.8 4.4 70 2.3 NNW 19 26 10 14 1007.2 1007.2 2.6
05/01:30am 10.0 5.0 4.4 68 2.5 NNW 20 30 11 16 1007.1 1007.1 2.6
05/01:00am 9.9 4.9 4.5 69 2.4 NNW 20 30 11 16 1007.4 1007.4 2.6
05/12:30am 10.1 4.7 4.7 69 2.4 NNW 22 33 12 18 1007.5 1007.5 2.6
05/12:00am 9.9 4.9 4.7 70 2.3 NW 20 32 11 17 1007.5 1007.5 2.6
 
Date/Time
EST
Temp
°C
App
Temp
°C
Dew
Point
°C
Rel
Hum
%
Delta-T
°C
Wind Press
QNH
hPa
Press
MSL
hPa
Rain since
9am
mm
Dir  Spd
km/h
Gust
km/h
Spd
kts
Gust
kts
04/11:30pm 10.0 5.1 5.0 71 2.3 NW 20 33 11 18 1007.5 1007.5 2.6
04/11:00pm 10.0 5.1 5.0 71 2.3 NW 20 32 11 17 1007.4 1007.4 2.6
04/10:30pm 9.6 4.7 5.2 74 2.0 NW 20 35 11 19 1007.1 1007.1 2.6
04/10:00pm 10.0 5.0 4.8 70 2.3 NW 20 33 11 18 1006.9 1006.9 2.6
04/09:30pm 10.5 5.1 4.6 67 2.6 WNW 22 35 12 19 1006.3 1006.3 2.6
04/09:00pm 10.5 4.9 5.3 70 2.4 NW 24 37 13 20 1006.0 1006.0 2.6
04/08:30pm 10.3 4.7 5.3 71 2.3 NW 24 39 13 21 1005.5 1005.5 2.6
04/08:00pm 10.4 5.2 5.4 71 2.3 WNW 22 39 12 21 1005.1 1005.1 2.6
04/07:30pm 10.3 5.4 5.3 71 2.3 WNW 20 33 11 18 1004.6 1004.6 2.6
04/07:00pm 10.9 5.2 5.0 67 2.7 WNW 24 44 13 24 1004.0 1004.0 2.6
04/06:35pm 11.2 4.9 5.7 69 2.5 WNW 28 46 15 25 1003.6 1003.6 2.6
04/06:30pm 11.1 5.2 5.8 70 2.5 WNW 26 39 14 21 1003.6 1003.6 2.6
04/06:00pm 11.5 7.2 7.2 75 2.1 W 19 28 10 15 1002.8 1002.8 2.4
04/05:30pm 10.2 3.1 6.4 77 1.8 WNW 33 52 18 28 1002.1 1002.1 2.4
04/05:12pm 10.5 4.2 7.2 80 1.6 W 30 50 16 27 1002.0 1002.0 2.0
04/05:00pm 10.1 4.2 7.3 83 1.3 W 28 50 15 27 1001.8 1001.8 2.0
04/04:56pm 10.0 3.2 7.1 82 1.4 W 32 65 17 35 1001.9 1001.9 1.8
04/04:53pm 10.1 3.6 6.6 79 1.6 W 30 65 16 35 1001.9 1001.9 1.6
04/04:49pm 11.9 6.5 6.4 69 2.6 WNW 24 65 13 35 1001.8 1001.8 0.8
04/04:30pm 12.8 7.1 6.6 66 3.0 WNW 26 41 14 22 1001.2 1001.2 0.8
04/04:00pm 12.3 6.3 7.0 70 2.6 W 28 44 15 24 1001.1 1001.1 0.8
04/03:30pm 12.5 6.6 7.6 72 2.4 W 28 50 15 27 1000.8 1000.8 0.8
04/03:00pm 11.3 3.3 7.6 78 1.8 W 39 59 21 32 1000.6 1000.6 0.6
04/02:30pm 12.6 5.5 8.1 74 2.2 WSW 35 61 19 33 999.9 999.9 0.4
04/02:24pm 13.3 6.5 7.1 66 3.0 W 32 61 17 33 1000.0 1000.0 0.4
04/02:08pm 15.1 9.1 7.2 59 3.9 WNW 28 46 15 25 999.4 999.4 0.4
04/02:00pm 15.3 9.9 7.8 61 3.8 WNW 26 43 14 23 999.5 999.5 0.4
04/01:31pm 14.4 8.4 7.2 62 3.5 W 28 46 15 25 999.3 999.3 0.4
04/01:30pm 14.6 8.3 7.4 62 3.5 W 30 46 16 25 999.3 999.3 0.4
04/01:03pm 14.4 8.5 9.0 70 2.7 W 30 48 16 26 999.3 999.3 0.4
04/01:00pm 14.0 7.6 8.6 70 2.7 W 32 48 17 26 999.3 999.3 0.4
04/12:46pm 12.5 4.7 8.4 76 2.0 W 39 56 21 30 999.5 999.5 0.4
04/12:39pm 13.7 7.0 8.1 69 2.8 W 33 48 18 26 999.5 999.5 0.4
04/12:33pm 15.3 8.9 8.5 64 3.4 WNW 32 50 17 27 999.1 999.1 0.4
04/12:30pm 15.5 8.9 8.7 64 3.5 WNW 33 50 18 27 999.1 999.1 0.4
04/12:21pm 14.7 9.1 8.9 68 2.9 W 28 46 15 25 999.1 999.1 0.4
04/12:00pm 14.7 8.8 9.1 69 2.9 W 30 46 16 25 999.0 999.0 0.4
04/11:33am 14.3 8.9 9.5 73 2.5 W 28 46 15 25 998.9 998.9 0.4
04/11:30am 14.5 8.2 9.1 70 2.8 W 32 46 17 25 998.8 998.8 0.4
04/11:00am 14.6 9.4 10.2 75 2.3 W 28 39 15 21 998.5 998.5 0.4
04/10:30am 14.4 9.4 10.8 79 1.9 W 28 46 15 25 998.3 998.3 0.4
04/10:11am 13.6 8.6 11.0 84 1.4 WNW 28 46 15 25 998.0 998.0 0.4
04/10:00am 13.6 9.4 11.1 85 1.3 W 24 39 13 21 997.9 997.9 0.4
04/09:30am 14.2 10.0 11.0 81 1.7 WNW 24 39 13 21 997.6 997.6 0.0
04/09:00am 14.4 10.2 11.2 81 1.7 W 24 46 13 25 997.0 997.0 30.6
04/08:30am 14.2 10.0 11.2 82 1.6 WNW 24 37 13 20 996.6 996.6 30.6
04/08:00am 14.1 10.0 11.3 83 1.5 WNW 24 35 13 19 996.2 996.2 30.6
04/07:30am 13.7 11.1 11.9 89 1.0 NW 17 30 9 16 996.1 996.1 30.6
04/07:00am 13.2 11.1 12.4 95 0.4 NW 15 22 8 12 995.6 995.6 30.6
04/06:30am 13.1 11.4 12.6 97 0.3 NNW 13 20 7 11 995.5 995.5 30.6
04/06:00am 12.7 11.4 12.5 99 0.1 NNW 11 15 6 8 995.2 995.2 30.6
04/05:30am 12.7 11.4 12.5 99 0.1 NNW 11 15 6 8 995.2 995.2 30.6
04/05:00am 12.9 11.6 12.6 98 0.2 N 11 13 6 7 995.2 995.2 30.6
04/04:30am 13.1 12.6 12.8 98 0.2 NNW 7 11 4 6 995.8 995.8 29.6
04/04:24am 13.1 12.6 12.8 98 0.2 NW 7 9 4 5 995.8 995.8 29.4
04/04:00am 13.3 12.5 12.8 97 0.3 NNW 9 11 5 6 996.1 996.1 28.8
04/03:50am 13.3 12.8 12.7 96 0.3 NNW 7 9 4 5 996.0 996.0 28.6
04/03:41am 13.1 12.5 12.3 95 0.4 NW 7 9 4 5 995.9 995.9 28.4
04/03:30am 13.0 12.3 12.1 94 0.5 WSW 7 9 4 5 995.9 995.9 28.2
04/03:00am 13.2 12.1 12.1 93 0.6 NW 9 13 5 7 996.6 996.6 25.2
04/02:49am 13.4 12.3 12.1 92 0.7 WNW 9 13 5 7 996.7 996.7 24.2
04/02:30am 13.5 11.8 12.4 93 0.6 WNW 13 17 7 9 996.8 996.8 22.4
04/02:26am 13.5 11.8 12.4 93 0.6 WNW 13 17 7 9 996.7 996.7 22.2
04/02:00am 13.9 12.6 12.6 92 0.7 W 11 19 6 10 996.9 996.9 20.0
04/01:34am 13.6 10.0 12.0 90 0.9 WSW 22 33 12 18 997.0 997.0 17.2
04/01:30am 13.8 9.9 12.2 90 0.9 WSW 24 35 13 19 996.8 996.8 16.4
04/01:21am 14.0 11.0 12.7 92 0.7 WSW 20 28 11 15 996.9 996.9 15.2
04/01:13am 13.9 10.5 12.5 91 0.8 WSW 22 37 12 20 997.1 997.1 14.2
04/01:00am 14.0 10.0 12.9 93 0.6 WSW 26 39 14 21 997.2 997.2 12.8
04/12:57am 14.1 10.5 13.1 94 0.6 WSW 24 39 13 21 997.2 997.2 12.8
04/12:43am 14.0 8.8 12.7 92 0.7 W 32 50 17 27 997.2 997.2 10.8
04/12:31am 15.4 13.0 14.4 94 0.6 NW 20 44 11 24 997.5 997.5 8.2
04/12:30am 16.3 14.5 15.5 95 0.5 NNW 19 33 10 18 997.4 997.4 8.0
04/12:00am 16.4 13.2 15.4 94 0.6 N 26 39 14 21 996.0 996.0 5.8
 
Date/Time
EST
Temp
°C
App
Temp
°C
Dew
Point
°C
Rel
Hum
%
Delta-T
°C
Wind Press
QNH
hPa
Press
MSL
hPa
Rain since
9am
mm
Dir  Spd
km/h
Gust
km/h
Spd
kts
Gust
kts
03/11:30pm 16.5 11.9 15.0 91 0.9 N 33 48 18 26 996.5 996.5 4.0
03/11:00pm 16.8 12.2 15.0 89 1.0 NNE 33 41 18 22 996.5 996.5 2.4
03/10:30pm 17.2 13.3 14.5 84 1.6 N 28 39 15 21 997.5 997.5 0.8
03/10:00pm 17.5 12.5 14.0 80 2.0 N 33 43 18 23 997.2 997.2 0.2
03/09:47pm 18.4 14.2 13.5 73 2.8 N 28 46 15 25 997.3 997.3 0.0
03/09:30pm 18.6 14.7 13.2 71 3.1 NNE 26 33 14 18 997.6 997.6 0.0
03/09:00pm 19.4 14.8 12.4 64 3.9 NNE 28 39 15 21 998.0 998.0 0.0
03/08:30pm 19.6 14.7 12.4 63 4.0 N 30 43 16 23 998.1 998.1 0.0
03/08:00pm 19.5 14.9 12.3 63 4.0 N 28 39 15 21 998.6 998.6 0.0
03/07:30pm 20.0 14.6 12.3 61 4.3 N 32 44 17 24 998.6 998.6 0.0
03/07:00pm 20.2 16.2 12.9 63 4.2 NNE 26 35 14 19 998.6 998.6 0.0
03/06:30pm 20.7 15.9 12.9 61 4.4 N 30 46 16 25 998.7 998.7 0.0
03/06:07pm 21.0 15.8 12.9 60 4.6 N 32 50 17 27 998.9 998.9 0.0
03/06:00pm 21.0 15.8 12.7 59 4.7 N 32 44 17 24 999.1 999.1 0.0
03/05:30pm 21.5 16.7 12.9 58 4.9 N 30 41 16 22 999.5 999.5 0.0
03/05:00pm 21.9 17.6 13.3 58 5.0 N 28 39 15 21 999.6 999.6 0.0
03/04:43pm 22.8 18.4 13.0 54 5.6 N 28 46 15 25 999.7 999.7 0.0
03/04:30pm 22.3 17.2 13.1 56 5.3 NNE 32 44 17 24 1000.0 1000.0 0.0
03/04:00pm 23.8 18.8 13.4 52 6.1 N 32 39 17 21 1000.2 1000.2 0.0
03/03:30pm 24.0 19.5 13.8 53 6.0 N 30 39 16 21 1000.5 1000.5 0.0
03/03:00pm 23.2 18.2 13.4 54 5.7 N 32 41 17 22 1000.8 1000.8 0.0
03/02:30pm 23.8 19.0 14.5 56 5.5 NNE 33 41 18 22 1001.5 1001.5 0.0
03/02:00pm 23.2 19.1 13.7 55 5.6 N 28 41 15 22 1002.1 1002.1 0.0
03/01:30pm 23.5 19.7 14.8 58 5.2 N 28 37 15 20 1002.7 1002.7 0.0
03/01:00pm 22.8 18.5 14.4 59 5.0 N 30 39 16 21 1003.2 1003.2 0.0
03/12:30pm 21.8 17.0 13.9 61 4.6 N 32 44 17 24 1003.8 1003.8 0.0
03/12:00pm 21.5 16.5 13.9 62 4.4 N 33 46 18 25 1004.3 1004.3 0.0
03/11:30am 20.2 15.7 13.9 67 3.6 N 30 41 16 22 1004.6 1004.6 0.0
03/11:00am 19.0 15.7 14.1 73 2.8 N 24 32 13 17 1005.0 1005.0 0.0
03/10:30am 18.1 15.1 13.8 76 2.5 N 22 30 12 16 1005.2 1005.2 0.0
03/10:00am 17.4 14.8 13.9 80 2.0 N 20 26 11 14 1005.6 1005.6 0.0
03/09:30am 16.9 14.5 13.8 82 1.8 NNE 19 22 10 12 1005.5 1005.5 0.0
03/09:00am 16.0 15.3 14.2 89 1.0 NNE 11 17 6 9 1005.6 1005.6 4.0
03/08:30am 15.2 12.5 13.6 90 0.9 NNE 20 26 11 14 1005.6 1005.6 -
03/08:00am 14.7 11.9 13.1 90 0.9 NNE 20 28 11 15 1005.7 1005.7 -
03/07:30am 14.7 12.5 13.4 92 0.7 NNE 17 24 9 13 1005.9 1005.9 -
03/07:00am 14.6 11.8 13.3 92 0.7 N 20 24 11 13 1006.2 1006.2 -
03/06:30am 14.3 12.6 13.5 95 0.4 N 15 20 8 11 1006.4 1006.4 -
03/06:00am 14.3 12.7 13.8 97 0.3 N 15 19 8 10 1006.3 1006.3 -
03/05:30am 14.2 12.3 14.2 100 0.0 N 17 22 9 12 1006.5 1006.5 -
03/05:00am 13.4 12.4 13.4 100 0.0 N 11 13 6 7 1006.6 1006.6 -
03/04:30am 13.4 12.8 13.4 100 0.0 N 9 13 5 7 1006.7 1006.7 -
03/04:00am 14.3 14.0 14.3 100 0.0 N 9 11 5 6 1007.2 1007.2 -
03/03:30am 14.4 13.3 14.4 100 0.0 N 13 15 7 8 1007.3 1007.3 -
03/03:00am 14.9 13.6 14.9 100 0.0 N 15 17 8 9 1007.7 1007.7 1.0
03/02:30am 15.1 14.3 15.1 100 0.0 N 13 15 7 8 1008.0 1008.0 -
03/02:00am 14.9 14.0 14.9 100 0.0 N 13 15 7 8 1007.9 1007.9 -
03/01:30am 15.2 14.8 15.2 100 0.0 N 11 13 6 7 1008.0 1008.0 -
03/01:00am 15.6 15.0 15.6 100 0.0 N 13 15 7 8 1008.1 1008.1 -
03/12:30am 16.0 16.3 16.0 100 0.0 N 9 11 5 6 1008.2 1008.2 -
03/12:25am 16.0 16.6 15.8 99 0.1 N 7 9 4 5 1008.2 1008.2 -
03/12:11am 16.0 16.7 15.7 98 0.2 NNW 6 7 3 4 1008.3 1008.3 -
03/12:00am 16.0 16.6 15.7 98 0.2 N 7 7 4 4 1008.3 1008.3 -
 
Date/Time
EST
Temp
°C
App
Temp
°C
Dew
Point
°C
Rel
Hum
%
Delta-T
°C
Wind Press
QNH
hPa
Press
MSL
hPa
Rain since
9am
mm
Dir  Spd
km/h
Gust
km/h
Spd
kts
Gust
kts
02/11:30pm 16.1 16.7 15.3 95 0.5 NW 6 7 3 4 1008.5 1008.5 -
02/11:17pm 16.1 16.7 15.3 95 0.5 WNW 6 7 3 4 1008.6 1008.6 -
02/11:00pm 16.4 16.9 15.6 95 0.5 W 7 9 4 5 1008.7 1008.7 -
02/10:47pm 16.4 17.1 15.6 95 0.5 W 6 7 3 4 1008.7 1008.7 -
02/10:30pm 16.3 16.5 15.7 96 0.4 WSW 9 13 5 7 1008.7 1008.7 -
02/10:27pm 16.3 16.1 15.8 97 0.3 WSW 11 17 6 9 1008.7 1008.7 -
02/10:00pm 16.4 17.1 16.2 99 0.1 W 7 13 4 7 1008.6 1008.6 -
02/09:38pm 16.5 17.3 16.3 99 0.1 W 7 15 4 8 1008.5 1008.5 -
02/09:30pm 16.4 17.1 16.1 98 0.2 WNW 7 11 4 6 1008.5 1008.5 -
02/09:20pm 16.4 16.7 15.9 97 0.3 W 9 13 5 7 1008.4 1008.4 -
02/09:10pm 16.4 17.0 15.8 96 0.4 WSW 7 9 4 5 1008.4 1008.4 -
02/09:00pm 16.4 16.6 15.8 96 0.4 WSW 9 15 5 8 1008.2 1008.2 2.0
02/08:48pm 16.3 16.4 15.5 95 0.5 SW 9 13 5 7 1008.1 1008.1 -
02/08:46pm 16.3 16.4 15.5 95 0.5 SW 9 13 5 7 1008.1 1008.1 -
02/08:30pm 16.1 15.4 15.3 95 0.5 SW 13 19 7 10 1007.9 1007.9 -
02/08:23pm 16.1 14.5 15.0 93 0.6 SW 17 28 9 15 1007.8 1007.8 -
02/08:08pm 16.7 16.1 15.6 93 0.6 SW 13 17 7 9 1007.5 1007.5 -
02/08:06pm 16.6 16.0 15.6 94 0.6 SW 13 17 7 9 1007.5 1007.5 -
02/08:00pm 16.5 16.2 15.5 94 0.6 SW 11 17 6 9 1007.5 1007.5 -
02/07:30pm 16.5 16.2 15.5 94 0.6 SW 11 17 6 9 1007.0 1007.0 -
02/07:19pm 16.4 15.7 15.3 93 0.6 SW 13 20 7 11 1006.9 1006.9 -
02/07:14pm 16.4 15.3 15.3 93 0.6 SW 15 20 8 11 1006.9 1006.9 -
02/07:00pm 16.3 15.8 15.8 97 0.3 SW 13 20 7 11 1006.8 1006.8 -
02/06:49pm 16.4 16.0 16.2 99 0.1 SSW 13 17 7 9 1006.6 1006.6 -
02/06:30pm 16.3 15.8 16.0 98 0.2 SW 13 20 7 11 1006.4 1006.4 -
02/06:22pm 16.3 15.0 15.8 97 0.3 SW 17 20 9 11 1006.4 1006.4 -
02/06:18pm 16.3 15.0 15.8 97 0.3 SW 17 20 9 11 1006.4 1006.4 -
02/06:03pm 16.3 15.3 15.7 96 0.4 SW 15 22 8 12 1006.3 1006.3 -
02/06:00pm 16.2 14.8 15.6 96 0.4 SW 17 22 9 12 1006.3 1006.3 -
02/05:30pm 16.5 14.9 15.9 96 0.4 SW 19 26 10 14 1006.0 1006.0 -
02/05:22pm 16.5 14.7 15.9 96 0.4 SW 20 28 11 15 1005.9 1005.9 -
02/05:09pm 16.7 15.0 15.7 94 0.6 SW 19 26 10 14 1005.8 1005.8 -
02/05:00pm 16.9 15.1 15.6 92 0.8 SW 19 24 10 13 1005.8 1005.8 -
02/04:30pm 17.1 16.1 15.6 91 0.9 SW 15 20 8 11 1005.8 1005.8 -
02/04:00pm 17.1 16.8 15.4 90 1.0 WSW 11 17 6 9 1005.7 1005.7 -
02/03:30pm 17.4 16.3 15.2 87 1.3 WSW 15 22 8 12 1005.5 1005.5 -
02/03:16pm 17.8 16.2 15.1 84 1.6 WSW 17 24 9 13 1005.4 1005.4 -

Latest Capital City Observations: Canberra | Sydney | Melbourne | Brisbane | Adelaide | Perth | Hobart | Darwin

Other formats

Comma delimited format used in spreadsheet applications
http://www.bom.gov.au/fwo/IDV60901/IDV60901.94870.axf

JavaScript Object Notation format (JSON) in row-major order
http://www.bom.gov.au/fwo/IDV60901/IDV60901.94870.json

Data quality

Most of these data are generated automatically and are frequently updated. Quality checks on data are not normally performed. It is possible for incorrect values to appear. Refer to information at About Latest Weather Observations and please check the disclaimer before using these data.